Time;durP1;ratioP1;P1;durP2;ratioP2;P2;SDS_P1;SDS_P2;PMS_P1;PMS_P2;Temp;Humidity;BMP_temperature;BMP_pressure;BME280_temperature;BME280_humidity;BME280_pressure;Samples;Min_cycle;Max_cycle;Signal;HPM_P1;HPM_P2
2023/05/27 00:01:51;;;;;;;9.35;6.10;;;;;;;13.39;100.00;94704.00;5153533;27;20232;-80
2023/05/27 00:04:18;;;;;;;10.50;6.97;;;;;;;13.37;100.00;94720.69;5153306;27;20562;-77
2023/05/27 00:06:45;;;;;;;15.05;9.75;;;;;;;13.19;100.00;94705.72;5137981;27;20212;-82
2023/05/27 00:09:12;;;;;;;19.63;9.43;;;;;;;13.17;100.00;94708.00;5132531;27;20216;-85
2023/05/27 00:11:40;;;;;;;16.67;9.88;;;;;;;13.18;100.00;94701.41;5131566;27;20203;-78
2023/05/27 00:14:06;;;;;;;15.70;10.80;;;;;;;13.22;100.00;94705.06;5130887;27;20205;-80
2023/05/27 00:16:35;;;;;;;18.98;10.45;;;;;;;13.22;100.00;94707.78;5131127;27;20674;-80
2023/05/27 00:19:02;;;;;;;17.40;10.15;;;;;;;13.25;100.00;94704.38;5140265;27;20208;-80
2023/05/27 00:21:29;;;;;;;11.68;6.78;;;;;;;13.30;100.00;94709.56;5151480;27;20232;-80
2023/05/27 00:23:57;;;;;;;13.77;7.68;;;;;;;13.35;100.00;94703.91;5152184;27;20227;-81
2023/05/27 00:26:24;;;;;;;15.27;8.57;;;;;;;13.37;100.00;94696.19;5150084;27;20215;-81
2023/05/27 00:28:52;;;;;;;21.92;8.60;;;;;;;13.36;100.00;94688.38;5151613;27;20229;-81
2023/05/27 00:31:19;;;;;;;13.18;8.35;;;;;;;13.41;100.00;94690.84;5151503;27;20643;-80
2023/05/27 00:33:46;;;;;;;13.02;8.43;;;;;;;13.30;100.00;94690.53;5152231;27;20235;-83
2023/05/27 00:36:12;;;;;;;11.32;7.22;;;;;;;13.29;100.00;94694.38;5152428;27;20207;-82
2023/05/27 00:38:39;;;;;;;12.77;7.60;;;;;;;13.29;100.00;94686.22;5151651;27;20654;-82
2023/05/27 00:41:06;;;;;;;9.70;7.22;;;;;;;13.36;100.00;94678.28;5147581;27;20201;-81
2023/05/27 00:43:33;;;;;;;13.60;7.10;;;;;;;13.38;100.00;94670.56;5131090;27;20232;-82
2023/05/27 00:46:01;;;;;;;11.25;7.15;;;;;;;13.41;100.00;94661.69;5130628;27;20235;-81
2023/05/27 00:48:29;;;;;;;8.68;6.18;;;;;;;13.50;100.00;94662.38;5142675;27;20192;-82
2023/05/27 00:50:56;;;;;;;6.75;4.85;;;;;;;13.55;100.00;94657.81;5151705;27;20593;-82
2023/05/27 00:53:24;;;;;;;4.63;2.60;;;;;;;13.61;100.00;94659.16;5151285;27;20207;-82
2023/05/27 00:55:54;;;;;;;2.55;2.05;;;;;;;13.75;100.00;94657.63;5151311;27;20204;-81
2023/05/27 00:58:21;;;;;;;2.92;2.30;;;;;;;13.79;100.00;94652.28;5151902;27;20196;-80
2023/05/27 01:00:48;;;;;;;5.38;2.47;;;;;;;13.83;100.00;94636.81;5151436;27;20229;-81
2023/05/27 01:03:16;;;;;;;2.45;2.10;;;;;;;13.87;100.00;94643.97;5151446;27;20236;-80
2023/05/27 01:05:43;;;;;;;2.72;1.98;;;;;;;13.82;100.00;94636.03;5144236;27;20205;-80
2023/05/27 01:08:30;;;;;;;4.05;2.05;;;;;;;13.85;100.00;94629.09;5130719;27;20204;-81
2023/05/27 01:10:57;;;;;;;2.03;1.67;;;;;;;13.77;100.00;94628.13;5140596;27;20555;-80
2023/05/27 01:13:34;;;;;;;1.92;1.60;;;;;;;13.79;100.00;94625.84;5151156;27;20208;-81
2023/05/27 01:16:03;;;;;;;2.90;1.75;;;;;;;13.83;100.00;94626.72;5151003;27;20202;-81
2023/05/27 01:18:33;;;;;;;3.58;1.80;;;;;;;13.81;100.00;94620.03;5150789;27;20239;-81
2023/05/27 01:21:06;;;;;;;4.07;2.00;;;;;;;13.69;100.00;94618.16;5150963;27;20201;-81
2023/05/27 01:23:34;;;;;;;3.67;2.63;;;;;;;13.58;100.00;94613.56;5150294;27;20750;-82
2023/05/27 01:26:01;;;;;;;3.83;2.70;;;;;;;13.57;100.00;94606.53;5149993;27;20204;-81
2023/05/27 01:28:28;;;;;;;4.40;2.90;;;;;;;13.64;100.00;94598.59;5150829;27;20319;-82
2023/05/27 01:30:59;;;;;;;3.35;2.65;;;;;;;13.75;100.00;94596.94;5137246;27;20208;-82
2023/05/27 01:33:31;;;;;;;3.67;2.75;;;;;;;13.78;100.00;94596.25;5130020;27;20563;-81
2023/05/27 01:36:05;;;;;;;3.35;2.50;;;;;;;13.79;100.00;94593.19;5131045;27;20197;-82
2023/05/27 01:38:36;;;;;;;4.05;2.50;;;;;;;13.80;100.00;94596.69;5150941;27;20200;-82
2023/05/27 01:41:04;;;;;;;3.13;2.28;;;;;;;13.86;100.00;94587.91;5150826;27;20193;-82
2023/05/27 01:43:32;;;;;;;3.90;2.50;;;;;;;13.75;100.00;94586.06;5151228;27;20239;-82
2023/05/27 01:45:59;;;;;;;3.30;2.60;;;;;;;13.56;100.00;94585.91;5146644;27;20416;-82
2023/05/27 01:48:27;;;;;;;2.72;2.05;;;;;;;13.52;100.00;94594.00;5129753;27;20205;-82
2023/05/27 01:50:54;;;;;;;2.92;2.15;;;;;;;13.48;100.00;94593.88;5129932;27;20249;-83
2023/05/27 01:53:20;;;;;;;4.63;2.50;;;;;;;13.50;100.00;94598.97;5129749;28;20196;-82
2023/05/27 01:55:49;;;;;;;4.50;2.67;;;;;;;13.52;100.00;94600.22;5130164;27;20204;-82
2023/05/27 01:58:16;;;;;;;4.63;2.50;;;;;;;13.53;100.00;94593.63;5132849;27;20685;-82
2023/05/27 02:00:43;;;;;;;4.60;2.83;;;;;;;13.52;100.00;94600.22;5150787;27;20208;-82
2023/05/27 02:03:09;;;;;;;4.38;2.35;;;;;;;13.52;100.00;94599.44;5150253;27;20296;-83
2023/05/27 02:05:36;;;;;;;3.53;2.75;;;;;;;13.52;100.00;94597.50;5150587;27;20614;-83
2023/05/27 02:08:03;;;;;;;3.15;2.40;;;;;;;13.53;100.00;94596.34;5150725;27;20215;-82
2023/05/27 02:10:30;;;;;;;3.13;2.38;;;;;;;13.55;100.00;94603.38;5150787;27;20249;-84
2023/05/27 02:12:58;;;;;;;3.13;2.47;;;;;;;13.58;100.00;94595.31;5150109;27;20204;-85
2023/05/27 02:15:26;;;;;;;3.28;2.33;;;;;;;13.56;100.00;94602.22;5149493;27;20204;-84
2023/05/27 02:17:55;;;;;;;3.05;2.10;;;;;;;13.53;100.00;94601.78;5150174;27;20208;-84
2023/05/27 02:20:22;;;;;;;3.58;2.08;;;;;;;13.52;100.00;94594.78;5150062;27;20196;-83
2023/05/27 02:22:50;;;;;;;5.70;2.20;;;;;;;13.52;100.00;94600.22;5150530;27;20224;-83
2023/05/27 02:25:17;;;;;;;3.50;2.72;;;;;;;13.58;100.00;94597.25;5150117;27;20231;-83
2023/05/27 02:27:48;;;;;;;2.92;2.08;;;;;;;13.56;100.00;94588.63;5149922;27;20626;-85
2023/05/27 02:30:16;;;;;;;3.08;2.13;;;;;;;13.68;100.00;94594.00;5150331;27;20203;-84
2023/05/27 02:32:43;;;;;;;3.55;2.22;;;;;;;13.44;100.00;94603.88;5149834;27;20226;-85
2023/05/27 02:35:13;;;;;;;3.50;1.80;;;;;;;13.29;100.00;94601.88;5150325;27;20651;-86
2023/05/27 02:37:40;;;;;;;2.33;2.00;;;;;;;13.42;100.00;94603.41;5149884;27;20559;-85
2023/05/27 02:40:09;;;;;;;1.83;1.50;;;;;;;13.40;100.00;94605.69;5150768;27;20196;-85
2023/05/27 02:42:35;;;;;;;3.05;1.65;;;;;;;13.41;100.00;94604.56;5135742;27;20239;-85
2023/05/27 02:45:02;;;;;;;4.07;1.60;;;;;;;13.61;100.00;94602.00;5150447;27;20204;-84
2023/05/27 02:47:30;;;;;;;2.50;1.80;;;;;;;13.56;100.00;94604.94;5150182;27;20228;-85
2023/05/27 02:49:57;;;;;;;2.03;1.60;;;;;;;13.60;100.00;94611.28;5154080;27;20227;-85
2023/05/27 02:52:24;;;;;;;1.63;1.50;;;;;;;13.71;100.00;94606.94;5153681;27;20212;-86
2023/05/27 02:54:51;;;;;;;2.15;1.65;;;;;;;13.75;100.00;94600.44;5154195;27;20212;-84
2023/05/27 02:57:18;;;;;;;2.13;1.88;;;;;;;13.80;100.00;94604.88;5154063;27;20230;-84
2023/05/27 02:59:45;;;;;;;1.90;1.63;;;;;;;13.67;100.00;94600.59;5142515;27;20647;-85
2023/05/27 03:02:12;;;;;;;2.03;1.70;;;;;;;13.84;100.00;94589.38;5132788;27;20720;-84
2023/05/27 03:04:40;;;;;;;2.58;2.00;;;;;;;13.98;100.00;94594.41;5136803;27;20192;-84
2023/05/27 03:07:07;;;;;;;2.30;2.00;;;;;;;14.04;100.00;94595.75;5153898;27;20209;-84
2023/05/27 03:09:34;;;;;;;2.95;2.33;;;;;;;14.09;100.00;94593.56;5153836;27;20204;-83
2023/05/27 03:12:00;;;;;;;3.08;2.15;;;;;;;14.05;100.00;94589.97;5154003;27;20200;-85
2023/05/27 03:14:27;;;;;;;2.90;2.28;;;;;;;13.93;100.00;94598.22;5153271;27;20196;-85
2023/05/27 03:16:55;;;;;;;2.70;2.40;;;;;;;13.96;100.00;94597.50;5153684;27;20204;-84
2023/05/27 03:19:22;;;;;;;3.08;2.58;;;;;;;14.39;100.00;94598.56;5153558;27;20196;-84
2023/05/27 03:21:50;;;;;;;4.22;2.80;;;;;;;14.61;100.00;94595.28;5153176;27;20241;-84
2023/05/27 03:24:17;;;;;;;6.80;2.50;;;;;;;14.91;100.00;94593.59;5153514;27;20235;-84
2023/05/27 03:26:44;;;;;;;4.53;2.20;;;;;;;15.48;97.62;94594.03;5153065;27;20697;-84
2023/05/27 03:29:11;;;;;;;3.10;2.80;;;;;;;15.44;95.13;94598.66;5153497;27;20216;-84
2023/05/27 03:31:38;;;;;;;5.70;2.95;;;;;;;15.17;95.47;94597.69;5154624;27;20211;-85
2023/05/27 03:34:04;;;;;;;3.42;2.63;;;;;;;15.00;96.84;94595.38;5153729;27;20208;-85
2023/05/27 03:36:31;;;;;;;4.45;3.17;;;;;;;14.90;97.37;94597.47;5153288;27;20208;-84
2023/05/27 03:38:59;;;;;;;4.22;3.03;;;;;;;14.92;97.97;94594.41;5153361;27;20291;-85
2023/05/27 03:41:26;;;;;;;5.28;3.08;;;;;;;15.04;98.09;94605.19;5139270;27;20224;-84
2023/05/27 03:43:53;;;;;;;6.30;2.53;;;;;;;15.07;98.52;94606.41;5153090;27;20586;-85
2023/05/27 03:46:20;;;;;;;4.20;3.10;;;;;;;15.11;98.40;94612.75;5152835;27;20284;-85
2023/05/27 03:48:46;;;;;;;4.28;2.78;;;;;;;15.14;98.27;94617.50;5152816;27;20662;-85
2023/05/27 03:51:13;;;;;;;4.32;3.45;;;;;;;14.98;99.03;94620.28;5152880;27;20533;-85
2023/05/27 03:53:40;;;;;;;10.70;3.45;;;;;;;14.96;99.23;94605.41;5152698;27;20348;-85
2023/05/27 03:56:09;;;;;;;5.10;3.35;;;;;;;14.84;98.77;94604.38;5145174;27;20283;-85
2023/05/27 03:58:36;;;;;;;5.13;3.33;;;;;;;14.86;98.91;94602.09;5137694;27;20192;-86
2023/05/27 04:01:03;;;;;;;5.30;3.80;;;;;;;14.67;99.39;94610.19;5152077;27;20204;-85
2023/05/27 04:03:30;;;;;;;4.88;3.15;;;;;;;14.73;99.35;94611.53;5152647;27;20361;-86
2023/05/27 04:05:57;;;;;;;5.18;3.50;;;;;;;14.73;99.87;94603.34;5152725;27;20197;-86
2023/05/27 04:08:26;;;;;;;5.53;3.60;;;;;;;14.87;99.69;94614.59;5152381;27;20208;-87
2023/05/27 04:10:52;;;;;;;6.28;3.67;;;;;;;15.02;99.00;94612.19;5153857;27;20409;-87
2023/05/27 04:13:21;;;;;;;5.95;3.65;;;;;;;15.06;98.42;94607.56;5155831;27;20211;-87
2023/05/27 04:15:49;;;;;;;4.47;3.65;;;;;;;15.15;98.36;94613.63;5159151;27;20204;-88
2023/05/27 04:18:16;;;;;;;3.92;3.17;;;;;;;15.25;98.24;94607.59;5155616;27;20196;-87
2023/05/27 04:20:44;;;;;;;7.15;3.75;;;;;;;15.39;97.92;94602.44;5154323;27;20536;-88
2023/05/27 04:23:11;;;;;;;6.72;3.55;;;;;;;15.52;97.65;94608.56;5152751;27;20242;-85
2023/05/27 04:25:39;;;;;;;6.22;3.90;;;;;;;15.74;96.39;94607.06;5152200;27;20224;-84
2023/05/27 04:28:06;;;;;;;6.93;5.10;;;;;;;15.92;96.67;94608.22;5152328;27;20706;-85
2023/05/27 04:30:35;;;;;;;4.38;3.55;;;;;;;16.10;96.02;94603.88;5151878;27;20566;-87
2023/05/27 04:33:02;;;;;;;5.47;3.80;;;;;;;16.14;94.26;94601.97;5138621;27;20243;-87
2023/05/27 04:35:30;;;;;;;4.82;4.30;;;;;;;16.27;93.54;94592.44;5152282;27;20719;-86
2023/05/27 04:37:58;;;;;;;5.07;3.67;;;;;;;16.60;93.49;94604.72;5152475;27;20311;-86
2023/05/27 04:40:26;;;;;;;4.45;3.20;;;;;;;16.66;90.41;94609.56;5152473;27;20204;-86
2023/05/27 04:42:53;;;;;;;4.35;3.35;;;;;;;16.49;90.80;94609.22;5152282;27;20717;-85
2023/05/27 04:45:19;;;;;;;6.03;3.67;;;;;;;16.56;88.89;94620.28;5152083;27;20573;-85
2023/05/27 04:47:48;;;;;;;4.85;3.60;;;;;;;16.66;89.49;94609.56;5148139;27;20196;-87
2023/05/27 04:50:15;;;;;;;4.50;3.05;;;;;;;16.68;89.06;94617.38;5131965;27;20240;-87
2023/05/27 04:52:41;;;;;;;9.15;3.35;;;;;;;16.46;91.10;94620.88;5130869;27;20730;-88
2023/05/27 04:55:10;;;;;;;5.20;3.45;;;;;;;16.55;91.79;94613.22;5132142;27;20743;-85
2023/05/27 04:57:40;;;;;;;5.13;4.18;;;;;;;16.65;90.19;94612.66;5131199;27;20287;-86
2023/05/27 05:00:22;;;;;;;5.72;4.90;;;;;;;17.04;90.04;94613.25;5150091;27;20201;-88
2023/05/27 05:03:00;;;;;;;7.00;4.47;;;;;;;17.22;89.78;94608.81;5140333;27;20243;-88
2023/05/27 05:05:27;;;;;;;6.10;3.85;;;;;;;17.35;87.50;94607.44;5145164;27;20198;-87
2023/05/27 05:07:54;;;;;;;5.75;3.47;;;;;;;17.08;86.58;94613.31;5152857;27;20196;-88
2023/05/27 05:10:21;;;;;;;4.68;3.70;;;;;;;17.24;86.13;94613.91;5153073;27;20200;-89
2023/05/27 05:12:48;;;;;;;5.53;3.80;;;;;;;17.17;86.84;94616.56;5152506;27;20239;-86
2023/05/27 05:15:15;;;;;;;5.38;4.53;;;;;;;17.13;87.31;94616.50;5147756;27;20211;-87
2023/05/27 05:17:42;;;;;;;7.25;3.88;;;;;;;16.66;89.76;94625.19;5130846;27;20627;-82
2023/05/27 05:20:12;;;;;;;5.93;3.85;;;;;;;16.85;88.19;94616.88;5130833;27;20201;-84
2023/05/27 05:22:39;;;;;;;5.70;4.30;;;;;;;16.93;89.34;94624.03;5143307;27;20677;-82
2023/05/27 05:25:06;;;;;;;7.32;3.90;;;;;;;17.11;87.67;94624.28;5150904;27;20315;-84
2023/05/27 05:27:34;;;;;;;4.72;3.30;;;;;;;17.42;86.42;94623.16;5151139;27;20630;-83
2023/05/27 05:30:00;;;;;;;5.55;3.60;;;;;;;17.71;85.54;94621.63;5151063;27;20688;-84
2023/05/27 05:32:27;;;;;;;6.20;3.65;;;;;;;17.36;85.29;94619.16;5148979;27;20193;-81
2023/05/27 05:34:54;;;;;;;5.00;4.00;;;;;;;16.84;85.82;94626.22;5149480;27;20567;-82
2023/05/27 05:37:22;;;;;;;5.85;3.83;;;;;;;16.62;88.19;94637.97;5143708;27;20229;-83
2023/05/27 05:39:49;;;;;;;7.20;3.53;;;;;;;16.96;87.35;94628.75;5133658;27;20201;-80
2023/05/27 05:42:16;;;;;;;5.15;3.67;;;;;;;17.00;87.03;94629.63;5144603;27;20265;-81
2023/05/27 05:44:42;;;;;;;4.82;3.67;;;;;;;17.09;86.80;94631.28;5144738;27;20229;-79
2023/05/27 05:47:09;;;;;;;4.40;3.30;;;;;;;17.36;85.89;94628.16;5150528;27;20745;-80
2023/05/27 05:49:36;;;;;;;5.38;3.72;;;;;;;17.26;86.35;94630.75;5150401;27;20200;-80
2023/05/27 05:52:03;;;;;;;6.03;3.83;;;;;;;17.20;86.78;94637.72;5148522;27;20200;-79
2023/05/27 05:54:31;;;;;;;5.25;3.90;;;;;;;17.01;88.35;94633.94;5143065;27;20208;-80
2023/05/27 05:56:58;;;;;;;5.75;3.35;;;;;;;16.64;87.78;94632.94;5130184;27;20266;-79
2023/05/27 05:59:24;;;;;;;4.05;2.92;;;;;;;16.66;88.13;94644.31;5142683;27;20253;-81
2023/05/27 06:01:51;;;;;;;5.75;3.83;;;;;;;16.56;89.19;94632.00;5150801;27;20211;-79
2023/05/27 06:04:18;;;;;;;4.90;3.50;;;;;;;16.48;88.19;94646.72;5151236;27;20243;-79
2023/05/27 06:06:45;;;;;;;5.13;3.25;;;;;;;16.74;87.18;94646.00;5136676;27;20687;-79
2023/05/27 06:09:11;;;;;;;5.60;3.75;;;;;;;16.97;86.54;94641.28;5130573;27;20640;-78
2023/05/27 06:11:39;;;;;;;11.38;3.72;;;;;;;17.40;85.98;94652.88;5129600;27;20205;-79
2023/05/27 06:14:06;;;;;;;6.68;3.67;;;;;;;17.39;83.82;94654.03;5129644;27;20578;-81
2023/05/27 06:16:35;;;;;;;5.15;4.32;;;;;;;17.10;83.46;94652.03;5131108;27;20266;-77
2023/05/27 06:19:02;;;;;;;5.88;4.40;;;;;;;17.24;83.21;94655.78;5150732;27;20234;-79
2023/05/27 06:21:29;;;;;;;6.57;3.92;;;;;;;17.01;83.67;94658.56;5146607;27;20211;-79
2023/05/27 06:23:56;;;;;;;7.47;4.60;;;;;;;17.48;83.70;94654.56;5144265;27;20290;-78
2023/05/27 06:26:23;;;;;;;8.13;3.78;;;;;;;17.68;82.49;94658.75;5147573;27;20211;-79
2023/05/27 06:28:51;;;;;;;9.45;4.30;;;;;;;17.60;82.65;94662.56;5149023;27;20715;-78
2023/05/27 06:31:18;;;;;;;7.35;4.00;;;;;;;17.79;81.54;94658.09;5151054;27;20205;-78
2023/05/27 06:33:44;;;;;;;6.20;4.30;;;;;;;17.62;81.57;94662.97;5152991;27;20350;-78
2023/05/27 06:36:11;;;;;;;6.70;4.03;;;;;;;17.63;82.81;94656.34;5149879;27;20292;-78
2023/05/27 06:38:38;;;;;;;5.47;4.10;;;;;;;17.63;82.00;94661.81;5144066;27;20204;-77
2023/05/27 06:41:05;;;;;;;8.00;4.40;;;;;;;17.75;81.76;94661.63;5153308;27;20519;-78
2023/05/27 06:43:32;;;;;;;7.65;4.43;;;;;;;17.95;81.53;94664.19;5153874;27;20224;-77
2023/05/27 06:46:00;;;;;;;6.13;4.60;;;;;;;17.87;82.03;94665.28;5150288;27;20232;-77
2023/05/27 06:48:26;;;;;;;7.25;4.68;;;;;;;18.36;80.67;94665.03;5141803;27;20495;-79
2023/05/27 06:50:53;;;;;;;6.55;4.95;;;;;;;18.31;80.10;94666.16;5148390;27;20245;-78
2023/05/27 06:53:25;;;;;;;7.80;4.80;;;;;;;18.69;79.85;94666.97;5140582;27;20196;-79
2023/05/27 06:55:51;;;;;;;11.90;6.60;;;;;;;19.10;77.15;94665.75;5152571;27;20280;-78
2023/05/27 06:58:18;;;;;;;8.82;5.80;;;;;;;19.32;77.05;94665.91;5149973;27;20192;-80
2023/05/27 07:00:45;;;;;;;7.50;4.50;;;;;;;19.43;75.12;94667.53;5148514;27;20699;-78
2023/05/27 07:03:14;;;;;;;8.63;4.50;;;;;;;19.18;75.68;94677.56;5147401;27;20224;-75
2023/05/27 07:05:41;;;;;;;9.63;4.60;;;;;;;19.22;75.70;94661.13;5146072;27;20711;-79
2023/05/27 07:08:07;;;;;;;8.82;5.30;;;;;;;19.16;76.56;94674.41;5148437;27;20684;-79
2023/05/27 07:10:34;;;;;;;11.13;5.15;;;;;;;19.37;75.62;94665.56;5147683;27;20196;-77
2023/05/27 07:13:01;;;;;;;10.13;5.05;;;;;;;19.07;75.52;94666.50;5145764;27;20200;-74
2023/05/27 07:15:28;;;;;;;9.20;5.05;;;;;;;19.05;76.20;94668.84;5144960;27;20212;-79
2023/05/27 07:17:54;;;;;;;9.68;4.72;;;;;;;19.16;77.58;94677.94;5146633;27;20290;-74
2023/05/27 07:20:22;;;;;;;8.80;4.70;;;;;;;19.14;77.13;94677.53;5145542;27;20203;-74
2023/05/27 07:22:49;;;;;;;11.00;5.07;;;;;;;19.24;76.76;94672.53;5147165;27;20214;-78
2023/05/27 07:25:16;;;;;;;5.80;4.40;;;;;;;19.33;76.03;94673.75;5150031;27;20289;-76
2023/05/27 07:27:43;;;;;;;9.55;4.95;;;;;;;19.55;74.92;94669.22;5152519;27;20253;-78
2023/05/27 07:30:11;;;;;;;7.57;5.55;;;;;;;19.41;73.66;94675.38;5150792;27;20203;-78
2023/05/27 07:32:38;;;;;;;7.40;5.60;;;;;;;19.53;74.45;94679.81;5151703;27;20216;-78
2023/05/27 07:35:05;;;;;;;7.47;4.90;;;;;;;19.78;73.81;94678.00;5151318;27;20202;-79
2023/05/27 07:37:34;;;;;;;10.05;4.88;;;;;;;20.11;72.99;94667.91;5151190;27;20651;-78
2023/05/27 07:40:00;;;;;;;7.93;5.50;;;;;;;19.92;71.56;94679.25;5149428;27;20196;-79
2023/05/27 07:42:27;;;;;;;7.32;4.45;;;;;;;20.29;72.25;94668.78;5149428;27;20206;-78
2023/05/27 07:44:55;;;;;;;7.90;4.93;;;;;;;20.56;71.34;94672.03;5152441;27;20228;-79
2023/05/27 07:47:21;;;;;;;8.40;5.35;;;;;;;20.91;70.30;94660.25;5152905;27;20693;-76
2023/05/27 07:49:50;;;;;;;10.77;6.22;;;;;;;21.16;69.40;94672.09;5147106;27;20200;-78
2023/05/27 07:52:17;;;;;;;10.68;6.10;;;;;;;21.62;68.70;94677.56;5149571;27;20253;-77
2023/05/27 07:54:45;;;;;;;7.18;5.03;;;;;;;21.36;67.26;94669.72;5149257;27;20196;-78
2023/05/27 07:57:12;;;;;;;7.80;6.18;;;;;;;21.34;67.56;94676.81;5148613;27;20192;-78
2023/05/27 07:59:39;;;;;;;7.40;5.53;;;;;;;21.32;67.58;94668.94;5145802;27;20207;-78
2023/05/27 08:02:06;;;;;;;7.78;5.32;;;;;;;21.30;68.44;94676.06;5146908;27;20227;-78
2023/05/27 08:04:33;;;;;;;7.35;4.13;;;;;;;21.16;68.24;94680.34;5147624;27;20560;-81
2023/05/27 08:06:59;;;;;;;4.72;3.72;;;;;;;21.34;67.86;94683.13;5149149;27;20204;-77
2023/05/27 08:09:26;;;;;;;4.60;3.30;;;;;;;21.54;64.56;94681.53;5148694;27;20204;-79
2023/05/27 08:11:54;;;;;;;4.25;3.33;;;;;;;21.11;61.72;94678.00;5148803;27;20314;-79
2023/05/27 08:14:21;;;;;;;6.05;3.92;;;;;;;21.61;62.82;94677.97;5148659;27;20256;-77
2023/05/27 08:16:48;;;;;;;3.42;2.95;;;;;;;21.27;60.76;94689.44;5146174;27;20200;-77
2023/05/27 08:19:15;;;;;;;3.40;2.83;;;;;;;20.70;62.11;94685.03;5146529;27;20670;-77
2023/05/27 08:21:41;;;;;;;4.05;3.28;;;;;;;20.78;62.28;94683.84;5147566;27;20280;-79
2023/05/27 08:24:08;;;;;;;4.43;3.08;;;;;;;20.86;62.65;94679.94;5146518;27;20220;-77
2023/05/27 08:26:35;;;;;;;4.72;3.42;;;;;;;20.55;64.69;94682.25;5146984;27;20291;-77
2023/05/27 08:29:05;;;;;;;5.05;3.60;;;;;;;20.96;63.15;94679.16;5149891;27;20199;-77
2023/05/27 08:31:31;;;;;;;4.80;3.50;;;;;;;20.88;63.71;94683.09;5150269;27;20200;-77
2023/05/27 08:33:59;;;;;;;4.32;3.80;;;;;;;20.73;63.24;94687.00;5152687;27;20204;-76
2023/05/27 08:36:25;;;;;;;5.80;3.65;;;;;;;20.97;63.03;94685.44;5145239;27;20230;-75
2023/05/27 08:38:52;;;;;;;6.53;3.47;;;;;;;21.21;63.65;94688.25;5131176;27;20205;-74
2023/05/27 08:41:19;;;;;;;4.57;3.35;;;;;;;21.03;63.19;94690.19;5131003;27;20205;-76
2023/05/27 08:43:46;;;;;;;5.07;3.80;;;;;;;20.84;64.17;94693.31;5130819;27;20212;-79
2023/05/27 08:46:14;;;;;;;6.43;4.40;;;;;;;20.09;64.79;94692.28;5150351;27;20228;-77
2023/05/27 08:48:41;;;;;;;6.63;4.10;;;;;;;19.93;65.57;94694.56;5151348;27;20207;-80
2023/05/27 08:51:10;;;;;;;5.65;4.07;;;;;;;19.64;67.04;94686.16;5142302;27;20253;-77
2023/05/27 08:53:37;;;;;;;5.90;4.55;;;;;;;19.85;66.33;94682.72;5150355;27;20197;-76
2023/05/27 08:56:07;;;;;;;9.27;6.55;;;;;;;20.10;67.29;94674.59;5130224;27;20710;-76
2023/05/27 08:58:35;;;;;;;9.40;4.90;;;;;;;19.83;68.05;94679.56;5132867;27;20279;-75
2023/05/27 09:01:02;;;;;;;8.07;4.32;;;;;;;19.90;65.75;94684.34;5138641;27;20200;-75
2023/05/27 09:03:30;;;;;;;5.35;4.38;;;;;;;20.30;65.18;94675.06;5147394;27;20291;-76
2023/05/27 09:05:57;;;;;;;5.88;4.32;;;;;;;20.52;64.13;94682.22;5141667;27;20686;-76
2023/05/27 09:08:24;;;;;;;7.35;4.68;;;;;;;20.28;64.59;94672.69;5142950;27;20277;-74
2023/05/27 09:10:51;;;;;;;5.35;4.18;;;;;;;19.54;66.39;94677.88;5148314;27;20662;-74
2023/05/27 09:13:27;;;;;;;7.07;4.47;;;;;;;19.66;66.68;94672.03;5147669;27;20687;-74
2023/05/27 09:15:59;;;;;;;6.78;4.38;;;;;;;19.94;66.60;94668.66;5130025;27;20283;-75
2023/05/27 09:18:27;;;;;;;5.03;4.30;;;;;;;20.10;65.95;94674.59;5129563;27;20203;-76
2023/05/27 09:20:56;;;;;;;5.20;4.20;;;;;;;20.33;64.23;94669.59;5129550;27;20302;-76
2023/05/27 09:23:23;;;;;;;4.93;3.78;;;;;;;20.87;62.59;94670.50;5143094;27;20223;-76
2023/05/27 09:25:50;;;;;;;4.43;4.00;;;;;;;21.21;63.11;94668.94;5142109;27;20693;-76
2023/05/27 09:28:21;;;;;;;6.00;4.03;;;;;;;21.64;60.65;94666.16;5142143;27;20208;-76
2023/05/27 09:30:52;;;;;;;4.97;4.07;;;;;;;22.10;61.32;94660.53;5135559;27;20200;-77
2023/05/27 09:33:23;;;;;;;4.82;4.10;;;;;;;22.13;60.67;94651.47;5130280;27;20288;-79
2023/05/27 09:35:50;;;;;;;8.35;4.78;;;;;;;21.62;61.27;94660.25;5135155;27;20200;-76
2023/05/27 09:38:19;;;;;;;6.43;4.95;;;;;;;21.36;61.97;94657.91;5142578;27;20196;-77
2023/05/27 09:40:45;;;;;;;6.78;4.60;;;;;;;21.33;61.05;94653.19;5149508;27;20204;-76
2023/05/27 09:43:15;;;;;;;5.00;4.50;;;;;;;21.51;62.46;94653.97;5150157;27;20670;-76
2023/05/27 09:45:43;;;;;;;6.25;4.97;;;;;;;21.70;61.98;94650.78;5149836;27;20278;-78
2023/05/27 09:48:13;;;;;;;9.85;4.80;;;;;;;22.19;58.94;94649.06;5141636;27;20257;-76
2023/05/27 09:50:41;;;;;;;6.10;4.47;;;;;;;21.73;59.72;94652.72;5132379;27;20192;-77
2023/05/27 09:53:08;;;;;;;8.70;4.28;;;;;;;22.27;59.39;94650.59;5150205;27;20612;-75
2023/05/27 09:55:36;;;;;;;7.78;4.43;;;;;;;23.05;56.76;94650.13;5148917;27;20208;-73
2023/05/27 09:58:03;;;;;;;5.72;4.30;;;;;;;22.45;56.58;94651.28;5148838;27;20249;-77
2023/05/27 10:00:31;;;;;;;6.80;4.72;;;;;;;22.33;57.61;94643.47;5149284;27;20235;-73
2023/05/27 10:03:01;;;;;;;4.78;4.25;;;;;;;22.53;56.29;94655.59;5152396;27;20321;-73
2023/05/27 10:05:28;;;;;;;5.88;4.72;;;;;;;22.77;56.51;94642.06;5149374;27;20639;-72
2023/05/27 10:07:55;;;;;;;8.07;4.75;;;;;;;22.96;56.05;94649.81;5153784;27;20223;-76
2023/05/27 10:10:22;;;;;;;5.63;4.60;;;;;;;22.40;55.73;94648.97;5151335;27;20561;-76
2023/05/27 10:12:51;;;;;;;8.68;4.95;;;;;;;22.32;59.18;94642.69;5152237;27;20202;-75
2023/05/27 10:15:26;;;;;;;6.85;4.75;;;;;;;22.49;58.40;94645.75;5148227;27;20199;-75
2023/05/27 10:17:55;;;;;;;4.65;4.25;;;;;;;23.14;55.69;94642.16;5146173;27;20192;-75
2023/05/27 10:20:28;;;;;;;6.63;4.38;;;;;;;23.09;56.00;94642.59;5145775;27;20216;-73
2023/05/27 10:22:56;;;;;;;7.70;4.70;;;;;;;23.36;54.87;94643.56;5145874;27;20673;-73
2023/05/27 10:25:23;;;;;;;7.47;4.82;;;;;;;22.45;55.28;94640.25;5144234;27;20222;-77
2023/05/27 10:27:51;;;;;;;6.70;4.50;;;;;;;22.69;55.47;94639.28;5147588;27;20196;-74
2023/05/27 10:30:18;;;;;;;8.55;4.70;;;;;;;22.95;56.12;94639.97;5146760;27;20195;-74
2023/05/27 10:32:48;;;;;;;5.05;4.50;;;;;;;23.01;55.14;94638.31;5146684;27;20211;-75
2023/05/27 10:35:16;;;;;;;6.60;5.07;;;;;;;21.88;58.00;94637.72;5146302;27;20257;-77
2023/05/27 10:37:43;;;;;;;7.07;5.25;;;;;;;21.47;60.21;94636.63;5144325;27;20209;-77
2023/05/27 10:40:11;;;;;;;6.10;4.80;;;;;;;21.56;60.26;94632.31;5147469;27;20690;-74
2023/05/27 10:42:38;;;;;;;9.23;5.40;;;;;;;22.00;60.05;94619.97;5139651;27;20248;-73
2023/05/27 10:45:08;;;;;;;8.90;5.50;;;;;;;22.98;56.71;94617.81;5143177;27;20303;-76
2023/05/27 10:47:38;;;;;;;8.48;5.10;;;;;;;22.89;54.45;94625.00;5142150;27;20236;-77
2023/05/27 10:50:13;;;;;;;7.30;4.90;;;;;;;22.76;55.22;94615.59;5145421;27;20265;-75
2023/05/27 10:52:41;;;;;;;5.25;4.15;;;;;;;23.04;54.47;94621.72;5142972;27;20200;-76
2023/05/27 10:55:09;;;;;;;8.20;4.88;;;;;;;22.74;55.89;94620.72;5145389;27;20196;-73
2023/05/27 10:57:36;;;;;;;10.20;5.07;;;;;;;22.38;56.44;94617.41;5143250;27;20189;-75
2023/05/27 11:00:08;;;;;;;5.78;4.30;;;;;;;22.03;57.14;94612.84;5145174;27;20192;-78
2023/05/27 11:02:38;;;;;;;5.45;4.38;;;;;;;21.68;57.97;94617.31;5146013;27;20193;-77
2023/05/27 11:05:15;;;;;;;5.97;4.57;;;;;;;21.01;59.56;94626.44;5146767;27;20247;-75
2023/05/27 11:07:42;;;;;;;5.20;4.50;;;;;;;21.11;58.96;94614.63;5141910;27;20615;-75
2023/05/27 11:10:10;;;;;;;5.38;4.78;;;;;;;21.35;59.33;94609.50;5148877;27;20201;-74
2023/05/27 11:12:37;;;;;;;6.07;4.68;;;;;;;20.98;60.67;94613.44;5142082;27;20201;-74
2023/05/27 11:15:04;;;;;;;9.65;5.10;;;;;;;21.42;60.71;94595.72;5146231;27;20656;-75
2023/05/27 11:17:31;;;;;;;8.32;5.03;;;;;;;21.05;60.10;94620.91;5144134;27;20585;-72
2023/05/27 11:19:59;;;;;;;8.18;4.85;;;;;;;21.03;60.83;94595.75;5149249;27;20241;-79
2023/05/27 11:22:27;;;;;;;7.47;5.20;;;;;;;21.27;60.90;94600.47;5153086;27;20196;-76
2023/05/27 11:24:58;;;;;;;7.38;4.95;;;;;;;21.79;60.31;94598.75;5142115;27;20188;-76
2023/05/27 11:27:25;;;;;;;6.03;4.82;;;;;;;21.87;58.97;94605.78;5153395;27;20220;-77
2023/05/27 11:29:53;;;;;;;6.63;5.18;;;;;;;22.62;58.60;94599.91;5153177;27;20205;-75
2023/05/27 11:32:20;;;;;;;7.90;5.00;;;;;;;22.13;56.73;94606.53;5145281;27;20200;-76